createdAt,value
2018-09-15T00:02:06.696Z,14.40
2018-09-15T00:04:47.690Z,14.50
2018-09-15T00:07:29.385Z,14.40
2018-09-15T00:10:10.703Z,14.60
2018-09-15T00:12:51.289Z,14.50
2018-09-15T00:15:32.251Z,14.60
2018-09-15T00:18:14.282Z,14.60
2018-09-15T00:20:55.201Z,14.50
2018-09-15T00:23:35.852Z,14.50
2018-09-15T00:26:16.943Z,14.60
2018-09-15T00:28:57.721Z,14.50
2018-09-15T00:31:38.131Z,14.50
2018-09-15T00:34:18.528Z,14.60
2018-09-15T00:36:59.719Z,14.60
2018-09-15T00:39:40.327Z,14.60
2018-09-15T00:42:20.937Z,14.50
2018-09-15T00:45:01.451Z,14.50
2018-09-15T00:47:41.926Z,14.40
2018-09-15T00:50:22.835Z,14.40
2018-09-15T00:53:04.492Z,14.40
2018-09-15T00:55:44.941Z,14.40
2018-09-15T00:58:25.631Z,14.40
2018-09-15T01:01:06.831Z,14.50
2018-09-15T01:03:48.149Z,14.40
2018-09-15T01:06:29.206Z,14.30
2018-09-15T01:09:10.461Z,14.40
2018-09-15T01:11:51.332Z,14.30
2018-09-15T01:14:32.180Z,14.20
2018-09-15T01:17:13.144Z,14.10
2018-09-15T01:19:53.651Z,14.00
2018-09-15T01:22:34.284Z,14.00
2018-09-15T01:25:15.132Z,13.90
2018-09-15T01:27:56.663Z,13.90
2018-09-15T01:30:38.066Z,13.90
2018-09-15T01:33:18.811Z,13.80
2018-09-15T01:35:59.921Z,13.80
2018-09-15T01:38:40.428Z,13.80
2018-09-15T01:41:20.921Z,13.70
2018-09-15T01:44:01.482Z,13.80
2018-09-15T01:46:42.043Z,13.80
2018-09-15T01:49:22.940Z,13.80
2018-09-15T01:52:04.222Z,13.70
2018-09-15T01:54:44.700Z,13.70
2018-09-15T01:57:25.647Z,13.80
2018-09-15T02:00:06.881Z,13.90
2018-09-15T02:02:48.154Z,13.90
2018-09-15T02:05:28.835Z,13.90
2018-09-15T02:08:09.940Z,13.90
2018-09-15T02:10:51.078Z,13.80
2018-09-15T02:13:32.170Z,13.70
2018-09-15T02:16:13.020Z,13.70
2018-09-15T02:18:54.052Z,13.60
2018-09-15T02:21:34.738Z,13.60
2018-09-15T02:24:15.467Z,13.50
2018-09-15T02:26:56.073Z,13.40
2018-09-15T02:29:36.699Z,13.40
2018-09-15T02:32:17.571Z,13.40
2018-09-15T02:34:58.420Z,13.40
2018-09-15T02:37:38.859Z,13.30
2018-09-15T02:40:19.649Z,13.20
2018-09-15T02:43:00.661Z,13.20
2018-09-15T02:45:41.244Z,13.10
2018-09-15T02:48:22.347Z,13.10
2018-09-15T02:51:03.568Z,13.30
2018-09-15T02:53:44.021Z,13.40
2018-09-15T02:56:24.409Z,13.40
2018-09-15T02:59:05.273Z,13.50
2018-09-15T03:01:47.420Z,13.50
2018-09-15T03:04:28.177Z,13.50
2018-09-15T03:07:10.128Z,13.40
2018-09-15T03:09:50.790Z,13.40
2018-09-15T03:12:32.462Z,13.40
2018-09-15T03:15:13.557Z,13.40
2018-09-15T03:17:54.019Z,13.40
2018-09-15T03:20:34.482Z,13.50
2018-09-15T03:23:15.848Z,13.60
2018-09-15T03:25:57.129Z,13.70
2018-09-15T03:28:38.168Z,13.70
2018-09-15T03:31:19.058Z,13.70
2018-09-15T03:33:59.947Z,13.70
2018-09-15T03:36:40.716Z,13.70
2018-09-15T03:39:23.230Z,13.80
2018-09-15T03:42:04.269Z,13.90
2018-09-15T03:44:44.945Z,13.80
2018-09-15T03:47:25.771Z,13.80
2018-09-15T03:50:06.204Z,13.70
2018-09-15T03:52:46.712Z,13.70
2018-09-15T03:55:27.335Z,13.70
2018-09-15T03:58:07.853Z,13.60
2018-09-15T04:00:49.362Z,13.60
2018-09-15T04:03:29.984Z,13.60
2018-09-15T04:06:10.873Z,13.60
2018-09-15T04:08:51.402Z,13.60
2018-09-15T04:11:32.367Z,13.60
2018-09-15T04:14:13.045Z,13.60
2018-09-15T04:16:54.190Z,13.70
2018-09-15T04:19:37.001Z,13.70
2018-09-15T04:22:17.473Z,13.70
2018-09-15T04:24:58.416Z,13.70
2018-09-15T04:27:39.470Z,13.70
2018-09-15T04:30:20.014Z,13.60
2018-09-15T04:33:00.980Z,13.60
2018-09-15T04:35:41.685Z,13.60
2018-09-15T04:38:22.665Z,13.60
2018-09-15T04:41:03.193Z,13.60
2018-09-15T04:43:43.760Z,13.60
2018-09-15T04:46:24.692Z,13.60
2018-09-15T04:49:05.949Z,13.60
2018-09-15T04:51:46.648Z,13.60
2018-09-15T04:54:27.182Z,13.70
2018-09-15T04:57:08.387Z,13.70
2018-09-15T04:59:49.709Z,13.60
2018-09-15T05:02:30.233Z,13.70
2018-09-15T05:05:10.763Z,13.70
2018-09-15T05:07:51.680Z,13.60
2018-09-15T05:10:32.444Z,13.70
2018-09-15T05:13:13.350Z,13.70
2018-09-15T05:15:54.083Z,13.80
2018-09-15T05:18:34.724Z,13.80
2018-09-15T05:21:15.856Z,13.80
2018-09-15T05:23:56.396Z,13.90
2018-09-15T05:26:36.942Z,13.90
2018-09-15T05:29:17.621Z,14.00
2018-09-15T05:32:05.029Z,14.20
2018-09-15T05:34:45.891Z,14.30
2018-09-15T05:37:27.121Z,14.50
2018-09-15T05:40:07.607Z,14.60
2018-09-15T05:42:48.707Z,14.70
2018-09-15T05:45:29.183Z,14.80
2018-09-15T05:48:09.649Z,14.90
2018-09-15T05:50:50.532Z,15.00
2018-09-15T05:53:31.366Z,15.00
2018-09-15T05:56:12.007Z,15.10
2018-09-15T05:58:53.109Z,15.10
2018-09-15T06:01:34.615Z,15.20
2018-09-15T06:04:16.731Z,15.50
2018-09-15T06:06:58.005Z,15.60
2018-09-15T06:09:38.541Z,15.60
2018-09-15T06:12:19.038Z,15.60
2018-09-15T06:14:59.604Z,15.50
2018-09-15T06:17:40.967Z,15.60
2018-09-15T06:20:21.854Z,15.60
2018-09-15T06:23:02.389Z,15.60
2018-09-15T06:25:42.893Z,15.60
2018-09-15T06:28:24.645Z,15.70
2018-09-15T06:31:07.062Z,15.80
2018-09-15T06:33:47.759Z,15.90
2018-09-15T06:36:28.393Z,16.00
2018-09-15T06:39:10.574Z,16.10
2018-09-15T06:41:52.248Z,16.30
2018-09-15T06:44:32.936Z,16.30
2018-09-15T06:47:13.777Z,16.40
2018-09-15T06:49:54.634Z,16.40
2018-09-15T06:52:35.235Z,16.40
2018-09-15T06:55:15.708Z,16.40
2018-09-15T06:57:56.602Z,16.50
2018-09-15T07:00:37.679Z,16.70
2018-09-15T07:03:18.650Z,16.90
2018-09-15T07:05:59.900Z,16.90
2018-09-15T07:08:40.608Z,16.90
2018-09-15T07:11:21.373Z,17.20
2018-09-15T07:14:02.062Z,17.50
2018-09-15T07:16:42.611Z,17.50
2018-09-15T07:19:23.847Z,17.60
2018-09-15T07:22:05.045Z,17.60
2018-09-15T07:24:46.039Z,17.70
2018-09-15T07:27:27.444Z,18.00
2018-09-15T07:30:09.373Z,18.30
2018-09-15T07:32:49.892Z,18.70
2018-09-15T07:35:31.538Z,18.60
2018-09-15T07:38:12.233Z,19.00
2018-09-15T07:40:52.762Z,19.30
2018-09-15T07:43:34.036Z,19.10
2018-09-15T07:46:15.021Z,19.30
2018-09-15T07:48:55.925Z,20.50
2018-09-15T07:51:36.742Z,21.50
2018-09-15T07:54:17.439Z,22.50
2018-09-15T07:56:57.821Z,24.00
2018-09-15T07:59:38.472Z,24.60
2018-09-15T08:02:20.738Z,25.30
2018-09-15T08:05:01.886Z,25.60
2018-09-15T08:07:43.178Z,25.60
2018-09-15T08:10:23.562Z,24.80
2018-09-15T08:13:04.961Z,23.20
2018-09-15T08:15:46.425Z,23.60
2018-09-15T08:18:27.279Z,24.70
2018-09-15T08:21:08.169Z,25.60
2018-09-15T08:23:49.040Z,26.20
2018-09-15T08:26:29.890Z,26.90
2018-09-15T08:29:10.415Z,27.20
2018-09-15T08:31:51.930Z,27.90
2018-09-15T08:34:33.339Z,28.10
2018-09-15T08:37:14.159Z,28.00
2018-09-15T08:39:55.302Z,28.10
2018-09-15T08:42:36.109Z,28.50
2018-09-15T08:45:17.784Z,28.70
2018-09-15T08:47:58.728Z,28.90
2018-09-15T08:50:40.273Z,29.00
2018-09-15T08:53:22.485Z,28.80
2018-09-15T08:56:03.733Z,29.20
2018-09-15T08:58:45.270Z,28.40
2018-09-15T09:01:26.188Z,27.60
2018-09-15T09:04:06.999Z,27.50
2018-09-15T09:06:49.000Z,26.40
2018-09-15T09:09:30.784Z,26.60
2018-09-15T09:12:11.357Z,28.30
2018-09-15T09:14:52.492Z,29.80
2018-09-15T09:17:33.159Z,30.00
2018-09-15T09:20:14.300Z,30.20
2018-09-15T09:22:55.177Z,29.90
2018-09-15T09:25:35.820Z,29.80
2018-09-15T09:28:17.090Z,30.30
2018-09-15T09:30:57.817Z,30.20
2018-09-15T09:33:38.973Z,29.30
2018-09-15T09:36:19.929Z,28.30
2018-09-15T09:39:01.100Z,28.20
2018-09-15T09:41:42.707Z,28.00
2018-09-15T09:44:24.174Z,26.70
2018-09-15T09:47:04.858Z,25.40
2018-09-15T09:49:46.718Z,24.20
2018-09-15T09:52:27.201Z,23.10
2018-09-15T09:55:08.295Z,23.80
2018-09-15T09:57:49.395Z,25.90
2018-09-15T10:00:35.356Z,27.20
2018-09-15T10:03:15.825Z,29.10
2018-09-15T10:05:57.080Z,29.30
2018-09-15T10:08:37.889Z,28.70
2018-09-15T10:11:20.501Z,27.10
2018-09-15T10:14:01.765Z,26.20
2018-09-15T10:16:42.762Z,27.40
2018-09-15T10:19:24.144Z,28.50
2018-09-15T10:22:05.712Z,28.90
2018-09-15T10:24:47.560Z,28.00
2018-09-15T10:27:28.630Z,25.80
2018-09-15T10:30:09.753Z,24.40
2018-09-15T10:32:51.016Z,23.40
2018-09-15T10:35:32.073Z,22.90
2018-09-15T10:38:12.922Z,23.70
2018-09-15T10:40:53.827Z,25.90
2018-09-15T10:43:34.856Z,27.30
2018-09-15T10:46:15.639Z,27.50
2018-09-15T10:48:56.367Z,27.00
2018-09-15T10:51:37.326Z,26.40
2018-09-15T10:54:18.079Z,27.00
2018-09-15T10:56:58.543Z,27.40
2018-09-15T10:59:39.721Z,27.30
2018-09-15T11:02:20.635Z,26.90
2018-09-15T11:05:01.463Z,26.00
2018-09-15T11:07:42.479Z,25.20
2018-09-15T11:10:23.062Z,24.20
2018-09-15T11:13:03.709Z,23.50
2018-09-15T11:15:44.748Z,22.80
2018-09-15T11:18:28.597Z,23.90
2018-09-15T11:21:09.319Z,25.00
2018-09-15T11:23:49.831Z,26.40
2018-09-15T11:26:30.799Z,27.90
2018-09-15T11:29:11.391Z,28.80
2018-09-15T11:31:52.173Z,29.70
2018-09-15T11:34:33.097Z,30.70
2018-09-15T11:37:13.617Z,30.10
2018-09-15T11:39:54.218Z,30.60
2018-09-15T11:42:34.756Z,31.50
2018-09-15T11:45:15.392Z,31.80
2018-09-15T11:47:56.573Z,32.50
2018-09-15T11:50:38.340Z,32.40
2018-09-15T11:53:18.933Z,31.90
2018-09-15T11:55:59.709Z,31.80
2018-09-15T11:58:40.324Z,31.90
2018-09-15T12:01:20.928Z,31.70
2018-09-15T12:04:02.933Z,31.40
2018-09-15T12:06:45.213Z,30.10
2018-09-15T12:09:25.913Z,29.10
2018-09-15T12:12:06.747Z,29.10
2018-09-15T12:14:47.588Z,29.90
2018-09-15T12:17:28.058Z,31.20
2018-09-15T12:20:09.274Z,32.20
2018-09-15T12:22:51.236Z,31.20
2018-09-15T12:25:32.108Z,29.30
2018-09-15T12:28:13.550Z,28.50
2018-09-15T12:30:54.110Z,28.60
2018-09-15T12:33:35.901Z,29.80
2018-09-15T12:36:16.799Z,29.50
2018-09-15T12:38:57.480Z,30.00
2018-09-15T12:41:38.813Z,30.20
2018-09-15T12:44:19.697Z,29.80
2018-09-15T12:47:00.903Z,28.70
2018-09-15T12:49:42.421Z,27.40
2018-09-15T12:52:23.288Z,26.50
2018-09-15T12:55:04.502Z,26.00
2018-09-15T12:57:47.286Z,25.70
2018-09-15T13:00:29.401Z,25.40
2018-09-15T13:03:10.856Z,25.00
2018-09-15T13:05:51.837Z,25.00
2018-09-15T13:08:33.318Z,25.30
2018-09-15T13:11:14.782Z,25.20
2018-09-15T13:13:55.513Z,24.80
2018-09-15T13:16:36.394Z,24.30
2018-09-15T13:19:17.534Z,24.20
2018-09-15T13:21:58.741Z,24.30
2018-09-15T13:24:39.510Z,24.40
2018-09-15T13:27:20.075Z,24.10
2018-09-15T13:30:01.606Z,23.80
2018-09-15T13:32:42.534Z,23.70
2018-09-15T13:35:23.630Z,23.30
2018-09-15T13:38:05.434Z,23.00
2018-09-15T13:40:45.869Z,23.10
2018-09-15T13:43:26.566Z,22.70
2018-09-15T13:46:07.200Z,22.80
2018-09-15T13:48:48.308Z,23.00
2018-09-15T13:51:29.304Z,23.00
2018-09-15T13:54:10.256Z,23.00
2018-09-15T13:56:50.889Z,23.20
2018-09-15T13:59:31.998Z,23.60
2018-09-15T14:02:12.505Z,24.00
2018-09-15T14:04:53.737Z,24.20
2018-09-15T14:07:34.860Z,24.10
2018-09-15T14:10:19.015Z,23.70
2018-09-15T14:12:56.101Z,23.60
2018-09-15T14:15:36.637Z,23.50
2018-09-15T14:18:17.156Z,23.60
2018-09-15T14:20:58.124Z,23.60
2018-09-15T14:23:39.370Z,24.60
2018-09-15T14:26:20.251Z,25.40
2018-09-15T14:29:00.806Z,25.60
2018-09-15T14:31:41.244Z,25.80
2018-09-15T14:34:22.049Z,25.10
2018-09-15T14:37:04.148Z,24.20
2018-09-15T14:39:45.047Z,23.40
2018-09-15T14:42:25.779Z,22.90
2018-09-15T14:45:06.600Z,22.70
2018-09-15T14:47:47.294Z,22.40
2018-09-15T14:50:28.400Z,22.30
2018-09-15T14:53:09.168Z,22.30
2018-09-15T14:55:50.000Z,22.10
2018-09-15T14:58:31.892Z,22.00
2018-09-15T15:01:12.869Z,22.30
2018-09-15T15:03:53.705Z,22.70
2018-09-15T15:06:35.324Z,23.10
2018-09-15T15:09:15.755Z,23.70
2018-09-15T15:11:56.381Z,24.10
2018-09-15T15:14:37.985Z,24.10
2018-09-15T15:17:19.699Z,24.10
2018-09-15T15:20:00.505Z,24.00
2018-09-15T15:22:41.852Z,24.00
2018-09-15T15:25:22.977Z,24.00
2018-09-15T15:28:03.631Z,23.70
2018-09-15T15:30:45.078Z,23.30
2018-09-15T15:33:26.237Z,23.10
2018-09-15T15:36:07.634Z,23.20
2018-09-15T15:38:48.584Z,23.20
2018-09-15T15:41:29.080Z,23.10
2018-09-15T15:44:10.008Z,22.80
2018-09-15T15:46:50.505Z,22.40
2018-09-15T15:49:30.985Z,22.10
2018-09-15T15:52:12.485Z,21.70
2018-09-15T15:54:52.843Z,21.50
2018-09-15T15:57:33.404Z,21.30
2018-09-15T16:00:14.210Z,21.10
2018-09-15T16:02:54.776Z,20.90
2018-09-15T16:05:35.349Z,20.70
2018-09-15T16:08:15.964Z,20.70
2018-09-15T16:10:56.597Z,20.60
2018-09-15T16:13:37.262Z,20.60
2018-09-15T16:16:18.099Z,20.50
2018-09-15T16:18:58.860Z,20.50
2018-09-15T16:21:39.265Z,20.30
2018-09-15T16:24:19.880Z,20.30
2018-09-15T16:27:00.691Z,20.20
2018-09-15T16:29:41.444Z,20.20
2018-09-15T16:32:22.158Z,20.10
2018-09-15T16:35:02.793Z,20.00
2018-09-15T16:37:43.255Z,19.90
2018-09-15T16:40:24.209Z,19.80
2018-09-15T16:43:05.401Z,19.70
2018-09-15T16:45:47.126Z,19.60
2018-09-15T16:48:27.587Z,19.50
2018-09-15T16:51:08.530Z,19.40
2018-09-15T16:53:49.023Z,19.30
2018-09-15T16:56:29.453Z,19.20
2018-09-15T16:59:10.681Z,19.10
2018-09-15T17:01:51.645Z,19.00
2018-09-15T17:04:32.577Z,18.90
2018-09-15T17:07:13.448Z,18.80
2018-09-15T17:09:54.159Z,18.60
2018-09-15T17:12:35.246Z,18.50
2018-09-15T17:15:15.860Z,18.40
2018-09-15T17:17:56.892Z,18.30
2018-09-15T17:20:37.720Z,18.20
2018-09-15T17:23:18.342Z,18.20
2018-09-15T17:25:58.784Z,18.00
2018-09-15T17:28:39.334Z,17.90
2018-09-15T17:31:20.122Z,17.80
2018-09-15T17:34:00.842Z,17.70
2018-09-15T17:36:41.926Z,17.60
2018-09-15T17:39:22.589Z,17.50
2018-09-15T17:42:03.522Z,17.30
2018-09-15T17:44:45.920Z,17.20
2018-09-15T17:47:26.311Z,17.20
2018-09-15T17:50:07.098Z,16.80
2018-09-15T17:52:47.655Z,17.00
2018-09-15T17:55:28.352Z,17.00
2018-09-15T17:58:09.133Z,16.90
2018-09-15T18:03:35.736Z,16.90
2018-09-15T18:06:16.744Z,16.90
2018-09-15T18:08:57.228Z,16.90
2018-09-15T18:11:38.596Z,16.80
2018-09-15T18:14:19.327Z,16.80
2018-09-15T18:17:00.732Z,16.70
2018-09-15T18:19:41.588Z,16.60
2018-09-15T18:22:22.698Z,16.60
2018-09-15T18:25:03.539Z,16.60
2018-09-15T18:27:44.394Z,16.60
2018-09-15T18:30:25.712Z,16.60
2018-09-15T18:33:06.197Z,16.50
2018-09-15T18:35:48.112Z,16.50
2018-09-15T18:38:29.175Z,16.40
2018-09-15T18:41:10.830Z,16.40
2018-09-15T18:43:51.886Z,16.40
2018-09-15T18:46:32.682Z,16.30
2018-09-15T18:49:13.469Z,16.20
2018-09-15T18:51:54.403Z,16.20
2018-09-15T18:54:34.921Z,16.10
2018-09-15T18:57:15.777Z,16.00
2018-09-15T18:59:56.790Z,16.00
2018-09-15T19:02:38.177Z,15.90
2018-09-15T19:05:18.789Z,15.90
2018-09-15T19:07:59.626Z,15.90
2018-09-15T19:10:41.189Z,15.90
2018-09-15T19:13:22.203Z,15.80
2018-09-15T19:16:02.624Z,15.80
2018-09-15T19:18:43.642Z,15.80
2018-09-15T19:21:24.257Z,15.70
2018-09-15T19:24:05.357Z,15.70
2018-09-15T19:26:46.286Z,15.60
2018-09-15T19:29:28.064Z,15.60
2018-09-15T19:32:08.703Z,15.50
2018-09-15T19:34:50.118Z,15.50
2018-09-15T19:37:30.607Z,15.40
2018-09-15T19:40:11.179Z,15.40
2018-09-15T19:42:52.399Z,15.30
2018-09-15T19:45:33.314Z,15.20
2018-09-15T19:48:14.043Z,15.20
2018-09-15T19:50:55.038Z,15.10
2018-09-15T19:53:36.006Z,15.00
2018-09-15T19:56:16.600Z,15.00
2018-09-15T19:58:57.709Z,14.90
2018-09-15T20:01:38.666Z,14.90
2018-09-15T20:04:19.139Z,14.90
2018-09-15T20:06:59.858Z,14.90
2018-09-15T20:09:40.683Z,14.90
2018-09-15T20:12:21.978Z,14.90
2018-09-15T20:15:02.532Z,14.80
2018-09-15T20:17:41.831Z,14.80
2018-09-15T20:20:21.892Z,14.80
2018-09-15T20:23:02.450Z,14.80
2018-09-15T20:25:43.967Z,14.70
2018-09-15T20:28:24.937Z,14.70
2018-09-15T20:31:05.964Z,14.70
2018-09-15T20:33:47.935Z,14.60
2018-09-15T20:36:28.434Z,14.50
2018-09-15T20:39:11.164Z,14.50
2018-09-15T20:41:52.171Z,14.50
2018-09-15T20:44:32.669Z,14.40
2018-09-15T20:47:13.896Z,14.40
2018-09-15T20:49:55.527Z,14.30
2018-09-15T20:52:36.462Z,14.30
2018-09-15T20:55:16.960Z,14.30
2018-09-15T20:57:58.045Z,14.20
2018-09-15T21:00:38.649Z,14.20
2018-09-15T21:03:20.069Z,14.10
2018-09-15T21:06:01.836Z,14.10
2018-09-15T21:08:42.241Z,14.10
2018-09-15T21:11:22.688Z,14.00
2018-09-15T21:14:03.527Z,14.00
2018-09-15T21:16:44.258Z,13.90
2018-09-15T21:19:24.791Z,13.90
2018-09-15T21:22:05.595Z,13.90
2018-09-15T21:24:47.717Z,13.90
2018-09-15T21:27:28.495Z,13.80
2018-09-15T21:30:09.812Z,13.80
2018-09-15T21:32:51.041Z,13.80
2018-09-15T21:35:31.667Z,13.80
2018-09-15T21:38:12.422Z,13.80
2018-09-15T21:40:53.620Z,13.80
2018-09-15T21:43:34.714Z,13.80
2018-09-15T21:46:15.393Z,13.80
2018-09-15T21:48:56.767Z,13.90
2018-09-15T21:51:37.593Z,13.80
2018-09-15T21:54:18.371Z,13.80
2018-09-15T21:56:59.411Z,13.70
2018-09-15T21:59:40.311Z,13.70
2018-09-15T22:02:23.063Z,13.70
2018-09-15T22:05:03.686Z,13.70
2018-09-15T22:07:45.082Z,13.70
2018-09-15T22:10:25.640Z,13.70
2018-09-15T22:13:06.954Z,13.60
2018-09-15T22:15:48.374Z,13.60
2018-09-15T22:18:29.788Z,13.60
2018-09-15T22:21:10.927Z,13.60
2018-09-15T22:23:52.534Z,13.50
2018-09-15T22:26:33.899Z,13.50
2018-09-15T22:29:15.349Z,13.50
2018-09-15T22:31:56.218Z,13.40
2018-09-15T22:34:36.997Z,13.40
2018-09-15T22:37:17.932Z,13.40
2018-09-15T22:39:58.330Z,13.40
2018-09-15T22:42:39.088Z,13.40
2018-09-15T22:45:19.830Z,13.40
2018-09-15T22:48:00.515Z,13.40
2018-09-15T22:50:41.821Z,13.40
2018-09-15T22:53:22.239Z,13.40
2018-09-15T22:56:03.980Z,13.40
2018-09-15T22:58:44.920Z,13.40
2018-09-15T23:01:25.717Z,13.40
2018-09-15T23:04:08.861Z,13.40
2018-09-15T23:06:49.692Z,13.30
2018-09-15T23:09:30.890Z,13.30
2018-09-15T23:12:11.736Z,13.30
2018-09-15T23:14:52.612Z,13.20
2018-09-15T23:17:33.920Z,13.20
2018-09-15T23:20:15.368Z,13.20
2018-09-15T23:22:55.828Z,13.20
2018-09-15T23:25:36.392Z,13.20
2018-09-15T23:28:17.224Z,13.20
2018-09-15T23:30:58.136Z,13.20
2018-09-15T23:33:38.646Z,13.30
2018-09-15T23:36:20.485Z,13.30
2018-09-15T23:39:01.309Z,13.30
2018-09-15T23:41:41.980Z,13.20
2018-09-15T23:44:22.846Z,13.20
2018-09-15T23:47:05.216Z,13.20
2018-09-15T23:49:46.237Z,13.20
2018-09-15T23:52:26.877Z,13.20
2018-09-15T23:55:07.422Z,13.20
2018-09-15T23:57:48.088Z,13.10
